sensor_id;sensor_type;location;lat;lon;timestamp;pressure;altitude;pressure_sealevel;temperature;humidity
10097;BME280;5087;42.662;23.466;2023-02-20T00:02:04;95651.06;;;9.60;100.00
10097;BME280;5087;42.662;23.466;2023-02-20T00:04:33;95657.38;;;9.69;100.00
10097;BME280;5087;42.662;23.466;2023-02-20T00:07:00;95659.59;;;9.67;100.00
10097;BME280;5087;42.662;23.466;2023-02-20T00:09:27;95636.50;;;9.56;100.00
10097;BME280;5087;42.662;23.466;2023-02-20T00:11:55;95642.16;;;9.45;100.00
10097;BME280;5087;42.662;23.466;2023-02-20T00:14:22;95645.78;;;9.41;100.00
10097;BME280;5087;42.662;23.466;2023-02-20T00:16:49;95658.63;;;9.49;100.00
10097;BME280;5087;42.662;23.466;2023-02-20T00:19:16;95652.09;;;9.36;100.00
10097;BME280;5087;42.662;23.466;2023-02-20T00:21:49;95652.41;;;9.21;100.00
10097;BME280;5087;42.662;23.466;2023-02-20T00:24:20;95619.88;;;9.21;100.00
10097;BME280;5087;42.662;23.466;2023-02-20T00:26:49;95621.91;;;9.29;100.00
10097;BME280;5087;42.662;23.466;2023-02-20T00:29:19;95639.44;;;9.31;100.00
10097;BME280;5087;42.662;23.466;2023-02-20T00:31:49;95650.88;;;9.28;100.00
10097;BME280;5087;42.662;23.466;2023-02-20T00:34:17;95636.03;;;9.26;100.00
10097;BME280;5087;42.662;23.466;2023-02-20T00:36:46;95617.06;;;9.26;100.00
10097;BME280;5087;42.662;23.466;2023-02-20T00:39:15;95596.13;;;9.03;100.00
10097;BME280;5087;42.662;23.466;2023-02-20T00:41:43;95645.78;;;9.27;100.00
10097;BME280;5087;42.662;23.466;2023-02-20T00:44:10;95634.72;;;9.23;100.00
10097;BME280;5087;42.662;23.466;2023-02-20T00:46:37;95619.78;;;9.26;100.00
10097;BME280;5087;42.662;23.466;2023-02-20T00:49:04;95631.81;;;9.19;100.00
10097;BME280;5087;42.662;23.466;2023-02-20T00:51:47;95638.06;;;9.06;100.00
10097;BME280;5087;42.662;23.466;2023-02-20T00:54:16;95638.81;;;8.93;100.00
10097;BME280;5087;42.662;23.466;2023-02-20T00:56:45;95630.81;;;9.01;100.00
10097;BME280;5087;42.662;23.466;2023-02-20T00:59:12;95646.75;;;8.89;100.00
10097;BME280;5087;42.662;23.466;2023-02-20T01:01:39;95641.13;;;8.85;100.00
10097;BME280;5087;42.662;23.466;2023-02-20T01:04:06;95641.91;;;8.72;100.00
10097;BME280;5087;42.662;23.466;2023-02-20T01:06:34;95661.38;;;8.74;100.00
10097;BME280;5087;42.662;23.466;2023-02-20T01:09:01;95651.06;;;8.76;100.00
10097;BME280;5087;42.662;23.466;2023-02-20T01:11:29;95627.44;;;8.49;100.00
10097;BME280;5087;42.662;23.466;2023-02-20T01:13:58;95686.25;;;8.76;100.00
10097;BME280;5087;42.662;23.466;2023-02-20T01:16:25;95669.53;;;8.55;100.00
10097;BME280;5087;42.662;23.466;2023-02-20T01:18:52;95693.31;;;8.58;100.00
10097;BME280;5087;42.662;23.466;2023-02-20T01:21:20;95684.78;;;8.65;100.00
10097;BME280;5087;42.662;23.466;2023-02-20T01:23:47;95683.59;;;8.71;100.00
10097;BME280;5087;42.662;23.466;2023-02-20T01:26:14;95668.75;;;8.68;100.00
10097;BME280;5087;42.662;23.466;2023-02-20T01:28:45;95683.41;;;8.67;100.00
10097;BME280;5087;42.662;23.466;2023-02-20T01:31:14;95677.19;;;8.67;100.00
10097;BME280;5087;42.662;23.466;2023-02-20T01:33:41;95700.53;;;8.63;100.00
10097;BME280;5087;42.662;23.466;2023-02-20T01:36:10;95653.22;;;8.41;100.00
10097;BME280;5087;42.662;23.466;2023-02-20T01:38:39;95686.00;;;8.59;100.00
10097;BME280;5087;42.662;23.466;2023-02-20T01:41:07;95697.03;;;8.62;100.00
10097;BME280;5087;42.662;23.466;2023-02-20T01:43:34;95700.63;;;8.58;100.00
10097;BME280;5087;42.662;23.466;2023-02-20T01:49:11;95695.19;;;8.58;100.00
10097;BME280;5087;42.662;23.466;2023-02-20T01:51:42;95710.25;;;8.64;100.00
10097;BME280;5087;42.662;23.466;2023-02-20T01:54:14;95695.94;;;8.63;100.00
10097;BME280;5087;42.662;23.466;2023-02-20T01:56:43;95710.09;;;8.74;100.00
10097;BME280;5087;42.662;23.466;2023-02-20T01:59:12;95698.53;;;8.68;100.00
10097;BME280;5087;42.662;23.466;2023-02-20T02:01:40;95709.06;;;8.70;100.00
10097;BME280;5087;42.662;23.466;2023-02-20T02:04:10;95702.75;;;8.75;100.00
10097;BME280;5087;42.662;23.466;2023-02-20T02:06:41;95698.22;;;8.70;100.00
10097;BME280;5087;42.662;23.466;2023-02-20T02:09:14;95717.91;;;8.76;100.00
10097;BME280;5087;42.662;23.466;2023-02-20T02:11:44;95721.44;;;8.76;100.00
10097;BME280;5087;42.662;23.466;2023-02-20T02:14:13;95711.19;;;8.73;100.00
10097;BME280;5087;42.662;23.466;2023-02-20T02:16:46;95716.09;;;8.71;100.00
10097;BME280;5087;42.662;23.466;2023-02-20T02:19:44;95720.91;;;8.74;100.00
10097;BME280;5087;42.662;23.466;2023-02-20T02:22:49;95736.94;;;8.70;100.00
10097;BME280;5087;42.662;23.466;2023-02-20T02:25:37;95743.25;;;8.66;100.00
10097;BME280;5087;42.662;23.466;2023-02-20T02:28:41;95759.28;;;8.62;100.00
10097;BME280;5087;42.662;23.466;2023-02-20T02:31:44;95751.59;;;8.50;100.00
10097;BME280;5087;42.662;23.466;2023-02-20T02:34:42;95753.84;;;8.43;100.00
10097;BME280;5087;42.662;23.466;2023-02-20T02:37:17;95747.25;;;8.30;100.00
10097;BME280;5087;42.662;23.466;2023-02-20T02:39:50;95749.22;;;8.24;100.00
10097;BME280;5087;42.662;23.466;2023-02-20T02:42:27;95747.25;;;8.11;100.00
10097;BME280;5087;42.662;23.466;2023-02-20T02:45:02;95726.41;;;7.73;100.00
10097;BME280;5087;42.662;23.466;2023-02-20T02:47:37;95744.56;;;7.68;100.00
10097;BME280;5087;42.662;23.466;2023-02-20T02:50:11;95753.78;;;7.67;100.00
10097;BME280;5087;42.662;23.466;2023-02-20T02:52:40;95711.34;;;7.43;100.00
10097;BME280;5087;42.662;23.466;2023-02-20T02:55:15;95746.22;;;7.64;100.00
10097;BME280;5087;42.662;23.466;2023-02-20T02:57:44;95752.44;;;7.64;100.00
10097;BME280;5087;42.662;23.466;2023-02-20T03:00:14;95764.13;;;7.59;100.00
10097;BME280;5087;42.662;23.466;2023-02-20T03:02:48;95771.13;;;7.60;100.00
10097;BME280;5087;42.662;23.466;2023-02-20T03:05:22;95758.13;;;7.63;100.00
10097;BME280;5087;42.662;23.466;2023-02-20T03:07:54;95716.19;;;7.46;100.00
10097;BME280;5087;42.662;23.466;2023-02-20T03:10:24;95753.84;;;7.62;100.00
10097;BME280;5087;42.662;23.466;2023-02-20T03:13:00;95738.31;;;7.48;100.00
10097;BME280;5087;42.662;23.466;2023-02-20T03:15:30;95710.97;;;7.31;100.00
10097;BME280;5087;42.662;23.466;2023-02-20T03:18:05;95776.88;;;7.54;100.00
10097;BME280;5087;42.662;23.466;2023-02-20T03:20:40;95739.84;;;7.30;100.00
10097;BME280;5087;42.662;23.466;2023-02-20T03:23:12;95782.38;;;7.43;100.00
10097;BME280;5087;42.662;23.466;2023-02-20T03:25:45;95777.34;;;7.37;100.00
10097;BME280;5087;42.662;23.466;2023-02-20T03:28:18;95794.06;;;7.39;100.00
10097;BME280;5087;42.662;23.466;2023-02-20T03:30:54;95789.91;;;7.47;100.00
10097;BME280;5087;42.662;23.466;2023-02-20T03:33:26;95802.16;;;7.39;100.00
10097;BME280;5087;42.662;23.466;2023-02-20T03:36:20;95787.44;;;7.26;100.00
10097;BME280;5087;42.662;23.466;2023-02-20T03:39:12;95795.19;;;7.33;100.00
10097;BME280;5087;42.662;23.466;2023-02-20T03:42:00;95810.66;;;7.27;100.00
10097;BME280;5087;42.662;23.466;2023-02-20T03:44:54;95790.41;;;7.24;100.00
10097;BME280;5087;42.662;23.466;2023-02-20T03:47:25;95789.31;;;7.25;100.00
10097;BME280;5087;42.662;23.466;2023-02-20T03:49:54;95765.47;;;7.33;100.00
10097;BME280;5087;42.662;23.466;2023-02-20T03:52:23;95763.41;;;7.24;100.00
10097;BME280;5087;42.662;23.466;2023-02-20T03:54:52;95784.91;;;7.35;100.00
10097;BME280;5087;42.662;23.466;2023-02-20T03:57:23;95786.13;;;7.23;100.00
10097;BME280;5087;42.662;23.466;2023-02-20T03:59:55;95812.78;;;7.30;100.00
10097;BME280;5087;42.662;23.466;2023-02-20T04:02:26;95807.56;;;7.39;100.00
10097;BME280;5087;42.662;23.466;2023-02-20T04:05:00;95802.19;;;7.34;100.00
10097;BME280;5087;42.662;23.466;2023-02-20T04:07:34;95785.28;;;7.23;100.00
10097;BME280;5087;42.662;23.466;2023-02-20T04:10:08;95794.84;;;7.15;100.00
10097;BME280;5087;42.662;23.466;2023-02-20T04:12:40;95815.22;;;7.26;100.00
10097;BME280;5087;42.662;23.466;2023-02-20T04:15:10;95809.13;;;7.16;100.00
10097;BME280;5087;42.662;23.466;2023-02-20T04:17:42;95824.88;;;7.38;100.00
10097;BME280;5087;42.662;23.466;2023-02-20T04:20:12;95831.91;;;7.34;100.00
10097;BME280;5087;42.662;23.466;2023-02-20T04:22:48;95837.31;;;7.34;100.00
10097;BME280;5087;42.662;23.466;2023-02-20T04:25:24;95826.75;;;7.37;100.00
10097;BME280;5087;42.662;23.466;2023-02-20T04:27:59;95829.19;;;7.39;100.00
10097;BME280;5087;42.662;23.466;2023-02-20T04:30:28;95823.81;;;7.34;100.00
10097;BME280;5087;42.662;23.466;2023-02-20T04:32:55;95826.63;;;7.23;100.00
10097;BME280;5087;42.662;23.466;2023-02-20T04:35:23;95832.16;;;7.37;100.00
10097;BME280;5087;42.662;23.466;2023-02-20T04:37:51;95832.63;;;7.15;100.00
10097;BME280;5087;42.662;23.466;2023-02-20T04:40:22;95846.59;;;7.22;100.00
10097;BME280;5087;42.662;23.466;2023-02-20T04:42:50;95822.31;;;7.22;100.00
10097;BME280;5087;42.662;23.466;2023-02-20T04:45:21;95831.44;;;7.26;100.00
10097;BME280;5087;42.662;23.466;2023-02-20T04:47:48;95833.94;;;7.18;100.00
10097;BME280;5087;42.662;23.466;2023-02-20T04:50:20;95852.63;;;7.09;100.00
10097;BME280;5087;42.662;23.466;2023-02-20T04:52:49;95859.41;;;7.06;100.00
10097;BME280;5087;42.662;23.466;2023-02-20T04:55:16;95868.63;;;7.00;100.00
10097;BME280;5087;42.662;23.466;2023-02-20T04:57:48;95867.31;;;6.97;100.00
10097;BME280;5087;42.662;23.466;2023-02-20T05:00:17;95870.63;;;6.89;100.00
10097;BME280;5087;42.662;23.466;2023-02-20T05:02:45;95822.19;;;6.69;100.00
10097;BME280;5087;42.662;23.466;2023-02-20T05:05:16;95870.91;;;6.88;100.00
10097;BME280;5087;42.662;23.466;2023-02-20T05:07:52;95858.25;;;6.83;100.00
10097;BME280;5087;42.662;23.466;2023-02-20T05:10:20;95853.41;;;6.80;100.00
10097;BME280;5087;42.662;23.466;2023-02-20T05:12:49;95815.25;;;6.57;100.00
10097;BME280;5087;42.662;23.466;2023-02-20T05:15:17;95839.72;;;6.71;100.00
10097;BME280;5087;42.662;23.466;2023-02-20T05:17:45;95867.72;;;6.80;100.00
10097;BME280;5087;42.662;23.466;2023-02-20T05:20:13;95871.16;;;6.86;100.00
10097;BME280;5087;42.662;23.466;2023-02-20T05:22:40;95860.44;;;6.76;100.00
10097;BME280;5087;42.662;23.466;2023-02-20T05:25:07;95870.13;;;6.82;100.00
10097;BME280;5087;42.662;23.466;2023-02-20T05:27:37;95864.47;;;6.78;100.00
10097;BME280;5087;42.662;23.466;2023-02-20T05:30:07;95858.09;;;6.64;100.00
10097;BME280;5087;42.662;23.466;2023-02-20T05:32:34;95874.50;;;6.73;100.00
10097;BME280;5087;42.662;23.466;2023-02-20T05:35:02;95872.88;;;6.72;100.00
10097;BME280;5087;42.662;23.466;2023-02-20T05:37:29;95874.50;;;6.73;100.00
10097;BME280;5087;42.662;23.466;2023-02-20T05:39:56;95879.06;;;6.77;100.00
10097;BME280;5087;42.662;23.466;2023-02-20T05:42:24;95895.97;;;6.88;100.00
10097;BME280;5087;42.662;23.466;2023-02-20T05:44:51;95892.75;;;6.91;100.00
10097;BME280;5087;42.662;23.466;2023-02-20T05:47:29;95886.25;;;6.92;100.00
10097;BME280;5087;42.662;23.466;2023-02-20T05:49:56;95907.75;;;7.03;100.00
10097;BME280;5087;42.662;23.466;2023-02-20T05:52:26;95909.88;;;7.11;100.00
10097;BME280;5087;42.662;23.466;2023-02-20T05:54:56;95907.41;;;7.20;100.00
10097;BME280;5087;42.662;23.466;2023-02-20T05:57:23;95866.44;;;7.07;100.00
10097;BME280;5087;42.662;23.466;2023-02-20T05:59:51;95908.19;;;7.20;100.00
10097;BME280;5087;42.662;23.466;2023-02-20T06:02:23;95883.66;;;7.17;100.00
10097;BME280;5087;42.662;23.466;2023-02-20T06:04:50;95910.03;;;7.25;100.00
10097;BME280;5087;42.662;23.466;2023-02-20T06:07:17;95908.44;;;7.24;100.00
10097;BME280;5087;42.662;23.466;2023-02-20T06:09:44;95926.25;;;7.25;100.00
10097;BME280;5087;42.662;23.466;2023-02-20T06:12:11;95911.91;;;7.29;100.00
10097;BME280;5087;42.662;23.466;2023-02-20T06:14:39;95918.09;;;7.30;100.00
10097;BME280;5087;42.662;23.466;2023-02-20T06:17:06;95941.81;;;7.38;100.00
10097;BME280;5087;42.662;23.466;2023-02-20T06:19:35;95935.59;;;7.38;100.00
10097;BME280;5087;42.662;23.466;2023-02-20T06:22:02;95931.72;;;7.49;100.00
10097;BME280;5087;42.662;23.466;2023-02-20T06:24:29;95943.47;;;7.64;100.00
10097;BME280;5087;42.662;23.466;2023-02-20T06:26:59;95933.06;;;7.81;100.00
10097;BME280;5087;42.662;23.466;2023-02-20T06:29:27;95918.69;;;7.86;100.00
10097;BME280;5087;42.662;23.466;2023-02-20T06:31:57;95940.81;;;8.17;100.00
10097;BME280;5087;42.662;23.466;2023-02-20T06:34:24;95934.94;;;8.10;100.00
10097;BME280;5087;42.662;23.466;2023-02-20T06:36:58;95946.69;;;8.24;100.00
10097;BME280;5087;42.662;23.466;2023-02-20T06:39:28;95934.38;;;8.13;100.00
10097;BME280;5087;42.662;23.466;2023-02-20T06:41:58;95963.59;;;8.35;100.00
10097;BME280;5087;42.662;23.466;2023-02-20T06:44:26;95963.19;;;8.52;100.00
10097;BME280;5087;42.662;23.466;2023-02-20T06:46:53;95962.13;;;8.48;100.00
10097;BME280;5087;42.662;23.466;2023-02-20T06:49:21;95945.94;;;8.43;100.00
10097;BME280;5087;42.662;23.466;2023-02-20T06:51:51;95966.28;;;8.65;100.00
10097;BME280;5087;42.662;23.466;2023-02-20T06:54:20;95949.13;;;8.50;100.00
10097;BME280;5087;42.662;23.466;2023-02-20T06:56:48;95969.63;;;8.57;100.00
10097;BME280;5087;42.662;23.466;2023-02-20T06:59:15;95937.38;;;8.36;100.00
10097;BME280;5087;42.662;23.466;2023-02-20T07:01:42;95961.56;;;8.27;100.00
10097;BME280;5087;42.662;23.466;2023-02-20T07:04:15;95952.53;;;8.07;100.00
10097;BME280;5087;42.662;23.466;2023-02-20T07:06:42;95964.66;;;8.15;100.00
10097;BME280;5087;42.662;23.466;2023-02-20T07:09:10;95963.50;;;8.21;100.00
10097;BME280;5087;42.662;23.466;2023-02-20T07:11:39;95969.38;;;8.29;100.00
10097;BME280;5087;42.662;23.466;2023-02-20T07:14:06;95972.59;;;8.31;100.00
10097;BME280;5087;42.662;23.466;2023-02-20T07:16:33;95976.50;;;8.44;100.00
10097;BME280;5087;42.662;23.466;2023-02-20T07:19:00;95985.84;;;8.57;98.69
10097;BME280;5087;42.662;23.466;2023-02-20T07:21:27;95969.75;;;8.41;97.87
10097;BME280;5087;42.662;23.466;2023-02-20T07:23:54;95950.69;;;8.57;95.92
10097;BME280;5087;42.662;23.466;2023-02-20T07:26:23;95956.09;;;9.00;94.61
10097;BME280;5087;42.662;23.466;2023-02-20T07:28:57;95974.66;;;9.26;92.36
10097;BME280;5087;42.662;23.466;2023-02-20T07:31:27;95963.91;;;9.21;90.90
10097;BME280;5087;42.662;23.466;2023-02-20T07:33:56;95963.25;;;9.29;89.47
10097;BME280;5087;42.662;23.466;2023-02-20T07:36:29;95972.84;;;9.21;88.69
10097;BME280;5087;42.662;23.466;2023-02-20T07:38:57;95940.34;;;9.02;86.61
10097;BME280;5087;42.662;23.466;2023-02-20T07:41:31;95980.03;;;9.12;85.46
10097;BME280;5087;42.662;23.466;2023-02-20T07:44:03;95983.47;;;9.17;84.34
10097;BME280;5087;42.662;23.466;2023-02-20T07:46:30;95999.56;;;9.28;83.80
10097;BME280;5087;42.662;23.466;2023-02-20T07:49:00;95991.78;;;9.02;82.67
10097;BME280;5087;42.662;23.466;2023-02-20T07:51:27;95957.59;;;8.68;82.70
10097;BME280;5087;42.662;23.466;2023-02-20T07:53:58;95996.69;;;8.81;81.79
10097;BME280;5087;42.662;23.466;2023-02-20T07:56:25;95975.63;;;8.53;81.75
10097;BME280;5087;42.662;23.466;2023-02-20T07:58:53;95999.22;;;8.48;81.59
10097;BME280;5087;42.662;23.466;2023-02-20T08:01:21;95980.41;;;8.62;80.94
10097;BME280;5087;42.662;23.466;2023-02-20T08:03:49;96009.69;;;8.79;81.00
10097;BME280;5087;42.662;23.466;2023-02-20T08:06:16;95985.28;;;8.60;80.47
10097;BME280;5087;42.662;23.466;2023-02-20T08:08:49;95994.25;;;8.79;80.46
10097;BME280;5087;42.662;23.466;2023-02-20T08:11:17;96002.41;;;8.98;80.31
10097;BME280;5087;42.662;23.466;2023-02-20T08:13:44;95989.16;;;8.97;79.80
10097;BME280;5087;42.662;23.466;2023-02-20T08:16:12;95979.50;;;9.10;79.50
10097;BME280;5087;42.662;23.466;2023-02-20T08:18:40;95962.44;;;9.09;78.49
10097;BME280;5087;42.662;23.466;2023-02-20T08:21:07;96010.53;;;9.56;78.07
10097;BME280;5087;42.662;23.466;2023-02-20T08:23:34;95983.00;;;9.10;76.04
10097;BME280;5087;42.662;23.466;2023-02-20T08:26:03;96004.03;;;9.38;76.90
10097;BME280;5087;42.662;23.466;2023-02-20T08:28:31;95998.16;;;9.69;75.82
10097;BME280;5087;42.662;23.466;2023-02-20T08:30:58;95999.91;;;9.59;75.31
10097;BME280;5087;42.662;23.466;2023-02-20T08:33:25;96007.34;;;9.54;74.46
10097;BME280;5087;42.662;23.466;2023-02-20T08:35:54;95979.84;;;9.60;73.41
10097;BME280;5087;42.662;23.466;2023-02-20T08:38:25;95993.31;;;9.85;74.14
10097;BME280;5087;42.662;23.466;2023-02-20T08:40:53;95977.28;;;9.69;74.22
10097;BME280;5087;42.662;23.466;2023-02-20T08:43:21;95978.19;;;9.45;72.47
10097;BME280;5087;42.662;23.466;2023-02-20T08:45:48;95982.72;;;9.69;72.71
10097;BME280;5087;42.662;23.466;2023-02-20T08:48:16;95970.81;;;9.65;72.35
10097;BME280;5087;42.662;23.466;2023-02-20T08:50:43;95956.66;;;9.87;71.39
10097;BME280;5087;42.662;23.466;2023-02-20T08:53:13;95933.56;;;9.57;71.39
10097;BME280;5087;42.662;23.466;2023-02-20T08:55:41;95967.88;;;9.80;70.89
10097;BME280;5087;42.662;23.466;2023-02-20T08:58:08;95950.53;;;9.62;70.61
10097;BME280;5087;42.662;23.466;2023-02-20T09:00:35;95966.44;;;9.69;70.38
10097;BME280;5087;42.662;23.466;2023-02-20T09:03:03;95955.00;;;9.72;69.35
10097;BME280;5087;42.662;23.466;2023-02-20T09:05:32;95950.88;;;9.42;69.13
10097;BME280;5087;42.662;23.466;2023-02-20T09:08:00;95936.91;;;9.68;69.37
10097;BME280;5087;42.662;23.466;2023-02-20T09:10:28;95942.31;;;9.68;69.51
10097;BME280;5087;42.662;23.466;2023-02-20T09:12:56;95933.41;;;9.67;69.02
10097;BME280;5087;42.662;23.466;2023-02-20T09:15:23;95947.22;;;9.85;68.76
10097;BME280;5087;42.662;23.466;2023-02-20T09:17:51;95954.34;;;10.08;68.94
10097;BME280;5087;42.662;23.466;2023-02-20T09:20:19;95939.66;;;9.81;68.44
10097;BME280;5087;42.662;23.466;2023-02-20T09:22:47;95919.00;;;9.53;68.02
10097;BME280;5087;42.662;23.466;2023-02-20T09:25:15;95928.19;;;9.71;68.29
10097;BME280;5087;42.662;23.466;2023-02-20T09:27:44;95916.94;;;9.77;68.86
10097;BME280;5087;42.662;23.466;2023-02-20T09:30:14;95948.25;;;10.30;68.04
10097;BME280;5087;42.662;23.466;2023-02-20T09:32:47;95924.75;;;10.26;67.22
10097;BME280;5087;42.662;23.466;2023-02-20T09:35:16;95946.44;;;9.98;68.05
10097;BME280;5087;42.662;23.466;2023-02-20T09:37:44;95953.44;;;10.60;67.84
10097;BME280;5087;42.662;23.466;2023-02-20T09:40:13;95959.09;;;11.00;67.57
10097;BME280;5087;42.662;23.466;2023-02-20T09:42:48;95956.28;;;11.05;66.90
10097;BME280;5087;42.662;23.466;2023-02-20T09:45:21;95939.03;;;10.32;66.15
10097;BME280;5087;42.662;23.466;2023-02-20T09:47:58;95945.44;;;10.36;67.53
10097;BME280;5087;42.662;23.466;2023-02-20T09:50:33;95941.28;;;10.57;67.30
10097;BME280;5087;42.662;23.466;2023-02-20T09:53:05;95923.38;;;10.42;67.22
10097;BME280;5087;42.662;23.466;2023-02-20T09:55:39;95959.84;;;10.64;66.70
10097;BME280;5087;42.662;23.466;2023-02-20T09:58:19;95960.75;;;10.73;66.98
10097;BME280;5087;42.662;23.466;2023-02-20T10:00:48;95948.69;;;10.80;66.60
10097;BME280;5087;42.662;23.466;2023-02-20T10:03:21;95952.88;;;10.86;66.03
10097;BME280;5087;42.662;23.466;2023-02-20T10:05:52;95973.69;;;11.04;66.02
10097;BME280;5087;42.662;23.466;2023-02-20T10:08:21;95950.16;;;11.00;65.46
10097;BME280;5087;42.662;23.466;2023-02-20T10:10:50;95961.56;;;10.74;65.79
10097;BME280;5087;42.662;23.466;2023-02-20T10:13:33;95930.63;;;10.61;64.82
10097;BME280;5087;42.662;23.466;2023-02-20T10:16:06;95951.66;;;10.92;65.23
10097;BME280;5087;42.662;23.466;2023-02-20T10:18:42;95930.44;;;10.94;64.29
10097;BME280;5087;42.662;23.466;2023-02-20T10:21:17;95925.91;;;10.89;64.52
10097;BME280;5087;42.662;23.466;2023-02-20T10:23:54;95902.56;;;11.02;63.80
10097;BME280;5087;42.662;23.466;2023-02-20T10:26:27;95927.28;;;11.15;64.31
10097;BME280;5087;42.662;23.466;2023-02-20T10:29:08;95873.22;;;10.90;62.75
10097;BME280;5087;42.662;23.466;2023-02-20T10:31:43;95926.06;;;11.21;62.55
10097;BME280;5087;42.662;23.466;2023-02-20T10:34:16;95891.88;;;11.06;62.96
10097;BME280;5087;42.662;23.466;2023-02-20T10:36:50;95904.84;;;11.09;62.72
10097;BME280;5087;42.662;23.466;2023-02-20T10:39:21;95880.41;;;11.09;61.94
10097;BME280;5087;42.662;23.466;2023-02-20T10:41:52;95880.59;;;11.13;61.82
10097;BME280;5087;42.662;23.466;2023-02-20T10:44:25;95924.28;;;11.62;61.30
10097;BME280;5087;42.662;23.466;2023-02-20T10:46:57;95910.00;;;11.56;60.48
10097;BME280;5087;42.662;23.466;2023-02-20T10:49:32;95901.59;;;11.66;60.21
10097;BME280;5087;42.662;23.466;2023-02-20T10:52:04;95918.25;;;11.96;59.43
10097;BME280;5087;42.662;23.466;2023-02-20T10:54:37;95881.59;;;11.94;58.35
10097;BME280;5087;42.662;23.466;2023-02-20T10:57:10;95866.41;;;11.70;58.28
10097;BME280;5087;42.662;23.466;2023-02-20T10:59:47;95905.06;;;12.12;58.02
10097;BME280;5087;42.662;23.466;2023-02-20T11:02:24;95893.75;;;11.96;56.94
10097;BME280;5087;42.662;23.466;2023-02-20T11:04:56;95887.47;;;11.87;58.02
10097;BME280;5087;42.662;23.466;2023-02-20T11:07:32;95885.38;;;12.07;57.69
10097;BME280;5087;42.662;23.466;2023-02-20T11:09:59;95905.06;;;12.12;58.70
10097;BME280;5087;42.662;23.466;2023-02-20T11:12:29;95872.59;;;11.93;57.20
10097;BME280;5087;42.662;23.466;2023-02-20T11:15:04;95888.91;;;12.16;57.39
10097;BME280;5087;42.662;23.466;2023-02-20T11:17:33;95844.56;;;11.84;56.95
10097;BME280;5087;42.662;23.466;2023-02-20T11:20:04;95894.28;;;11.98;57.18
10097;BME280;5087;42.662;23.466;2023-02-20T11:22:41;95900.63;;;12.25;57.70
10097;BME280;5087;42.662;23.466;2023-02-20T11:25:17;95881.81;;;12.46;56.20
10097;BME280;5087;42.662;23.466;2023-02-20T11:27:49;95879.28;;;12.18;57.10
10097;BME280;5087;42.662;23.466;2023-02-20T11:30:28;95906.91;;;12.34;57.57
10097;BME280;5087;42.662;23.466;2023-02-20T11:33:04;95901.19;;;12.45;56.63
10097;BME280;5087;42.662;23.466;2023-02-20T11:35:37;95896.28;;;12.64;57.19
10097;BME280;5087;42.662;23.466;2023-02-20T11:38:25;95911.44;;;12.48;57.66
10097;BME280;5087;42.662;23.466;2023-02-20T11:41:12;95903.84;;;12.27;57.43
10097;BME280;5087;42.662;23.466;2023-02-20T11:44:04;95890.09;;;12.32;56.27
10097;BME280;5087;42.662;23.466;2023-02-20T11:46:39;95867.19;;;12.33;57.36
10097;BME280;5087;42.662;23.466;2023-02-20T11:49:08;95881.03;;;12.63;57.43
10097;BME280;5087;42.662;23.466;2023-02-20T11:51:43;95871.72;;;12.47;56.84
10097;BME280;5087;42.662;23.466;2023-02-20T11:54:16;95868.91;;;12.21;57.22
10097;BME280;5087;42.662;23.466;2023-02-20T11:56:59;95874.09;;;12.40;57.69
10097;BME280;5087;42.662;23.466;2023-02-20T11:59:30;95893.59;;;12.99;56.94
10097;BME280;5087;42.662;23.466;2023-02-20T12:02:22;95876.13;;;12.83;56.18
10097;BME280;5087;42.662;23.466;2023-02-20T12:05:10;95882.69;;;12.82;56.30
10097;BME280;5087;42.662;23.466;2023-02-20T12:07:43;95884.63;;;12.90;55.39
10097;BME280;5087;42.662;23.466;2023-02-20T12:13:02;95842.78;;;12.77;55.26
10097;BME280;5087;42.662;23.466;2023-02-20T12:15:30;95855.75;;;12.72;55.19
10097;BME280;5087;42.662;23.466;2023-02-20T12:18:22;95825.59;;;12.50;54.91
10097;BME280;5087;42.662;23.466;2023-02-20T12:21:01;95887.66;;;12.71;54.90
10097;BME280;5087;42.662;23.466;2023-02-20T12:23:37;95878.97;;;12.69;54.31
10097;BME280;5087;42.662;23.466;2023-02-20T12:26:16;95860.06;;;12.64;54.41
10097;BME280;5087;42.662;23.466;2023-02-20T12:28:55;95855.03;;;12.40;54.91
10097;BME280;5087;42.662;23.466;2023-02-20T12:31:37;95871.38;;;12.40;54.87
10097;BME280;5087;42.662;23.466;2023-02-20T12:34:37;95875.53;;;12.46;55.21
10097;BME280;5087;42.662;23.466;2023-02-20T12:37:12;95888.09;;;12.64;55.21
10097;BME280;5087;42.662;23.466;2023-02-20T12:39:54;95893.09;;;12.71;54.84
10097;BME280;5087;42.662;23.466;2023-02-20T12:42:29;95878.56;;;12.35;54.96
10097;BME280;5087;42.662;23.466;2023-02-20T12:48:02;95900.13;;;12.72;54.73
10097;BME280;5087;42.662;23.466;2023-02-20T12:50:46;95888.69;;;12.44;53.93
10097;BME280;5087;42.662;23.466;2023-02-20T12:53:22;95876.47;;;12.32;54.75
10097;BME280;5087;42.662;23.466;2023-02-20T12:56:02;95864.31;;;12.30;54.68
10097;BME280;5087;42.662;23.466;2023-02-20T12:58:39;95864.91;;;12.85;54.29
10097;BME280;5087;42.662;23.466;2023-02-20T13:01:11;95840.03;;;12.60;54.04
10097;BME280;5087;42.662;23.466;2023-02-20T13:03:45;95875.44;;;12.60;54.06
10097;BME280;5087;42.662;23.466;2023-02-20T13:06:24;95878.97;;;12.60;53.99
10097;BME280;5087;42.662;23.466;2023-02-20T13:09:02;95885.03;;;12.48;54.39
10097;BME280;5087;42.662;23.466;2023-02-20T13:11:39;95887.50;;;13.03;54.25
10097;BME280;5087;42.662;23.466;2023-02-20T13:14:22;95901.09;;;12.76;54.42
10097;BME280;5087;42.662;23.466;2023-02-20T13:16:57;95899.16;;;12.59;54.86
10097;BME280;5087;42.662;23.466;2023-02-20T13:19:34;95904.63;;;12.19;54.76
10097;BME280;5087;42.662;23.466;2023-02-20T13:22:05;95891.69;;;12.33;55.16
10097;BME280;5087;42.662;23.466;2023-02-20T13:24:33;95904.00;;;12.22;55.67
10097;BME280;5087;42.662;23.466;2023-02-20T13:27:02;95902.38;;;12.70;55.33
10097;BME280;5087;42.662;23.466;2023-02-20T13:29:54;95876.19;;;12.43;54.82
10097;BME280;5087;42.662;23.466;2023-02-20T13:32:24;95895.28;;;12.51;54.52
10097;BME280;5087;42.662;23.466;2023-02-20T13:34:53;95884.72;;;12.59;54.75
10097;BME280;5087;42.662;23.466;2023-02-20T13:37:51;95898.59;;;12.40;55.17